createdAt,value
2023-03-29T00:01:04.505Z,0.87
2023-03-29T00:03:40.870Z,0.85
2023-03-29T00:06:15.299Z,0.83
2023-03-29T00:08:51.102Z,0.83
2023-03-29T00:11:25.728Z,0.81
2023-03-29T00:13:59.130Z,0.80
2023-03-29T00:16:31.129Z,0.79
2023-03-29T00:19:03.904Z,0.77
2023-03-29T00:21:38.692Z,0.75
2023-03-29T00:24:11.850Z,0.70
2023-03-29T00:26:43.903Z,0.66
2023-03-29T00:29:20.078Z,0.63
2023-03-29T00:31:54.011Z,0.59
2023-03-29T00:34:31.161Z,0.58
2023-03-29T00:37:06.255Z,0.56
2023-03-29T00:39:42.246Z,0.55
2023-03-29T00:42:16.315Z,0.53
2023-03-29T00:45:07.841Z,0.50
2023-03-29T00:47:43.166Z,0.48
2023-03-29T00:50:16.944Z,0.44
2023-03-29T00:52:55.407Z,0.43
2023-03-29T00:55:32.497Z,0.41
2023-03-29T00:58:05.622Z,0.38
2023-03-29T01:00:39.466Z,0.35
2023-03-29T01:03:26.794Z,0.34
2023-03-29T01:06:01.797Z,0.33
2023-03-29T01:08:40.767Z,0.34
2023-03-29T01:11:17.178Z,0.30
2023-03-29T01:13:56.250Z,0.27
2023-03-29T01:16:30.502Z,0.26
2023-03-29T01:19:03.916Z,0.21
2023-03-29T01:21:40.805Z,0.18
2023-03-29T01:24:44.094Z,0.14
2023-03-29T01:27:18.975Z,0.08
2023-03-29T01:29:58.071Z,0.05
2023-03-29T01:32:38.213Z,0.03
2023-03-29T01:35:14.706Z,0.00
2023-03-29T01:37:53.053Z,0.00
2023-03-29T01:40:27.248Z,-0.02
2023-03-29T01:43:10.496Z,-0.02
2023-03-29T01:45:46.620Z,-0.04
2023-03-29T01:48:25.614Z,-0.07
2023-03-29T01:51:05.000Z,-0.11
2023-03-29T01:53:41.686Z,-0.15
2023-03-29T01:56:20.433Z,-0.21
2023-03-29T01:58:55.631Z,-0.25
2023-03-29T02:01:38.470Z,-0.28
2023-03-29T02:04:14.293Z,-0.33
2023-03-29T02:06:50.343Z,-0.39
2023-03-29T02:09:22.939Z,-0.45
2023-03-29T02:11:57.623Z,-0.47
2023-03-29T02:14:35.159Z,-0.50
2023-03-29T02:17:19.888Z,-0.55
2023-03-29T02:19:53.764Z,-0.60
2023-03-29T02:22:31.805Z,-0.62
2023-03-29T02:25:08.460Z,-0.66
2023-03-29T02:27:41.121Z,-0.67
2023-03-29T02:30:17.154Z,-0.68
2023-03-29T02:32:56.787Z,-0.70
2023-03-29T02:35:37.290Z,-0.72
2023-03-29T02:38:14.963Z,-0.72
2023-03-29T02:40:48.553Z,-0.73
2023-03-29T02:43:24.521Z,-0.76
2023-03-29T02:46:00.604Z,-0.80
2023-03-29T02:48:34.525Z,-0.86
2023-03-29T02:51:12.289Z,-0.90
2023-03-29T02:53:46.287Z,-0.93
2023-03-29T02:56:19.234Z,-0.96
2023-03-29T02:58:51.255Z,-0.98
2023-03-29T03:01:23.858Z,-1.00
2023-03-29T03:03:57.109Z,-1.01
2023-03-29T03:06:31.973Z,-1.02
2023-03-29T03:09:06.050Z,-1.03
2023-03-29T03:11:39.694Z,-1.06
2023-03-29T03:14:14.331Z,-1.10
2023-03-29T03:16:50.735Z,-1.11
2023-03-29T03:19:24.282Z,-1.12
2023-03-29T03:21:59.147Z,-1.14
2023-03-29T03:24:34.975Z,-1.16
2023-03-29T03:27:09.697Z,-1.18
2023-03-29T03:29:42.272Z,-1.19
2023-03-29T03:32:14.417Z,-1.22
2023-03-29T03:34:48.083Z,-1.24
2023-03-29T03:37:20.307Z,-1.26
2023-03-29T03:39:52.345Z,-1.28
2023-03-29T03:42:25.573Z,-1.30
2023-03-29T03:44:58.380Z,-1.32
2023-03-29T03:47:32.177Z,-1.35
2023-03-29T03:50:04.984Z,-1.38
2023-03-29T03:52:38.949Z,-1.41
2023-03-29T03:55:13.106Z,-1.44
2023-03-29T03:57:44.983Z,-1.45
2023-03-29T04:00:21.406Z,-1.45
2023-03-29T04:02:56.480Z,-1.47
2023-03-29T04:05:29.684Z,-1.49
2023-03-29T04:08:06.826Z,-1.51
2023-03-29T04:10:44.414Z,-1.55
2023-03-29T04:13:17.803Z,-1.55
2023-03-29T04:16:00.952Z,-1.58
2023-03-29T04:18:34.374Z,-1.62
2023-03-29T04:21:10.002Z,-1.64
2023-03-29T04:23:47.886Z,-1.66
2023-03-29T04:26:21.004Z,-1.66
2023-03-29T04:28:53.720Z,-1.66
2023-03-29T04:31:29.519Z,-1.66
2023-03-29T04:34:03.820Z,-1.66
2023-03-29T04:36:37.121Z,-1.67
2023-03-29T04:39:10.359Z,-1.68
2023-03-29T04:41:42.964Z,-1.65
2023-03-29T04:44:17.076Z,-1.61
2023-03-29T04:46:49.028Z,-1.55
2023-03-29T04:51:58.006Z,-1.43
2023-03-29T04:54:40.057Z,-1.36
2023-03-29T04:57:13.240Z,-1.29
2023-03-29T04:59:49.271Z,-1.22
2023-03-29T05:02:24.156Z,-1.10
2023-03-29T05:05:03.321Z,-1.00
2023-03-29T05:07:40.487Z,-0.90
2023-03-29T05:10:16.260Z,-0.79
2023-03-29T05:12:51.767Z,-0.67
2023-03-29T05:15:24.606Z,-0.56
2023-03-29T05:17:57.228Z,-0.45
2023-03-29T05:20:35.490Z,-0.37
2023-03-29T05:23:08.088Z,-0.25
2023-03-29T05:25:41.863Z,-0.16
2023-03-29T05:28:16.519Z,-0.06
2023-03-29T05:31:05.163Z,0.05
2023-03-29T05:33:38.205Z,0.18
2023-03-29T05:36:22.892Z,0.28
2023-03-29T05:39:01.267Z,0.40
2023-03-29T05:41:35.758Z,0.52
2023-03-29T05:44:11.224Z,0.61
2023-03-29T05:46:43.046Z,0.75
2023-03-29T05:49:24.210Z,0.87
2023-03-29T05:51:57.710Z,0.99
2023-03-29T05:54:30.973Z,1.14
2023-03-29T05:57:09.373Z,1.25
2023-03-29T05:59:45.314Z,1.33
2023-03-29T06:02:19.770Z,1.47
2023-03-29T06:04:59.122Z,1.57
2023-03-29T06:07:34.876Z,1.69
2023-03-29T06:10:14.691Z,1.78
2023-03-29T06:12:51.630Z,1.87
2023-03-29T06:15:26.659Z,1.97
2023-03-29T06:18:02.713Z,2.10
2023-03-29T06:20:37.801Z,2.20
2023-03-29T06:23:13.188Z,2.28
2023-03-29T06:25:49.660Z,2.40
2023-03-29T06:28:25.294Z,2.49
2023-03-29T06:31:02.949Z,2.53
2023-03-29T06:33:38.661Z,2.61
2023-03-29T06:36:20.350Z,2.75
2023-03-29T06:38:52.999Z,2.86
2023-03-29T06:41:27.763Z,2.98
2023-03-29T06:44:04.660Z,3.09
2023-03-29T06:46:42.815Z,3.20
2023-03-29T06:49:24.939Z,3.32
2023-03-29T06:52:02.979Z,3.43
2023-03-29T06:54:42.479Z,3.55
2023-03-29T06:57:14.786Z,3.67
2023-03-29T06:59:50.458Z,3.82
2023-03-29T07:02:35.099Z,3.91
2023-03-29T07:05:22.290Z,4.04
2023-03-29T07:08:02.735Z,4.20
2023-03-29T07:10:41.354Z,4.31
2023-03-29T07:13:19.797Z,4.41
2023-03-29T07:15:55.475Z,4.56
2023-03-29T07:18:32.426Z,4.75
2023-03-29T07:21:08.141Z,4.91
2023-03-29T07:23:42.508Z,5.03
2023-03-29T07:26:28.572Z,5.14
2023-03-29T07:29:04.056Z,5.29
2023-03-29T07:31:41.660Z,5.39
2023-03-29T07:34:17.609Z,5.38
2023-03-29T07:36:56.821Z,5.47
2023-03-29T07:39:31.616Z,5.61
2023-03-29T07:42:12.300Z,5.74
2023-03-29T07:44:46.003Z,5.86
2023-03-29T07:47:17.966Z,5.94
2023-03-29T07:49:52.254Z,6.01
2023-03-29T07:52:30.491Z,6.12
2023-03-29T07:55:05.374Z,6.24
2023-03-29T07:57:41.301Z,6.25
2023-03-29T08:00:29.401Z,6.32
2023-03-29T08:03:04.363Z,6.39
2023-03-29T08:05:41.956Z,6.46
2023-03-29T08:08:15.654Z,6.59
2023-03-29T08:10:47.692Z,6.69
2023-03-29T08:13:19.541Z,6.79
2023-03-29T08:15:52.974Z,6.89
2023-03-29T08:18:29.131Z,7.00
2023-03-29T08:21:06.745Z,7.12
2023-03-29T08:23:40.284Z,7.15
2023-03-29T08:26:16.282Z,7.14
2023-03-29T08:28:49.013Z,7.19
2023-03-29T08:31:24.463Z,7.28
2023-03-29T08:34:01.303Z,7.38
2023-03-29T08:36:36.055Z,7.51
2023-03-29T08:39:11.263Z,7.58
2023-03-29T08:41:54.051Z,7.55
2023-03-29T08:44:56.166Z,7.55
2023-03-29T08:47:40.753Z,7.57
2023-03-29T08:50:18.040Z,7.64
2023-03-29T08:52:58.373Z,7.74
2023-03-29T08:55:39.645Z,7.80
2023-03-29T08:58:19.146Z,7.88
2023-03-29T09:00:54.191Z,8.06
2023-03-29T09:03:29.435Z,8.11
2023-03-29T09:06:08.119Z,8.13
2023-03-29T09:08:44.927Z,8.20
2023-03-29T09:11:39.430Z,8.29
2023-03-29T09:14:50.638Z,8.39
2023-03-29T09:17:32.169Z,8.46
2023-03-29T09:20:16.301Z,8.44
2023-03-29T09:23:05.744Z,8.50
2023-03-29T09:25:54.065Z,8.52
2023-03-29T09:28:39.865Z,8.53
2023-03-29T09:31:16.794Z,8.54
2023-03-29T09:33:53.697Z,8.56
2023-03-29T09:36:34.959Z,8.68
2023-03-29T09:39:16.877Z,8.71
2023-03-29T09:41:58.070Z,8.75
2023-03-29T09:44:36.601Z,8.85
2023-03-29T09:47:22.122Z,8.87
2023-03-29T09:50:04.179Z,8.92
2023-03-29T09:52:37.801Z,8.93
2023-03-29T09:55:20.361Z,8.95
2023-03-29T09:57:56.070Z,9.03
2023-03-29T10:00:28.601Z,9.13
2023-03-29T10:03:03.129Z,9.21
2023-03-29T10:05:40.096Z,9.30
2023-03-29T10:08:22.479Z,9.39
2023-03-29T10:11:02.125Z,9.49
2023-03-29T10:13:39.400Z,9.54
2023-03-29T10:16:22.336Z,9.61
2023-03-29T10:18:58.265Z,9.59
2023-03-29T10:21:33.068Z,9.54
2023-03-29T10:24:06.804Z,9.54
2023-03-29T10:26:41.652Z,9.56
2023-03-29T10:29:17.684Z,9.64
2023-03-29T10:31:52.549Z,9.70
2023-03-29T10:34:31.932Z,9.73
2023-03-29T10:37:05.379Z,9.81
2023-03-29T10:39:40.981Z,9.88
2023-03-29T10:42:20.369Z,9.96
2023-03-29T10:45:02.617Z,10.07
2023-03-29T10:47:39.822Z,10.15
2023-03-29T10:50:24.414Z,10.25
2023-03-29T10:52:58.732Z,10.33
2023-03-29T10:55:42.436Z,10.50
2023-03-29T10:58:29.084Z,10.61
2023-03-29T11:01:06.722Z,10.68
2023-03-29T11:04:11.394Z,10.72
2023-03-29T11:06:54.615Z,10.71
2023-03-29T11:09:44.287Z,10.68
2023-03-29T11:12:26.614Z,10.68
2023-03-29T11:15:11.411Z,10.73
2023-03-29T11:17:58.943Z,10.77
2023-03-29T11:20:38.625Z,10.76
2023-03-29T11:23:26.038Z,10.79
2023-03-29T11:26:10.485Z,10.91
2023-03-29T11:28:49.992Z,10.93
2023-03-29T11:31:38.394Z,10.98
2023-03-29T11:34:26.928Z,11.08
2023-03-29T11:37:10.933Z,11.21
2023-03-29T11:39:51.255Z,11.33
2023-03-29T11:42:31.010Z,11.39
2023-03-29T11:45:14.206Z,11.42
2023-03-29T11:47:51.232Z,11.83
2023-03-29T11:50:36.637Z,12.04
2023-03-29T11:53:13.527Z,12.36
2023-03-29T11:55:51.039Z,12.77
2023-03-29T11:58:32.092Z,13.17
2023-03-29T12:01:15.252Z,13.35
2023-03-29T12:03:53.493Z,13.62
2023-03-29T12:06:38.208Z,13.83
2023-03-29T12:09:23.029Z,14.12
2023-03-29T12:12:09.589Z,14.44
2023-03-29T12:14:51.879Z,14.71
2023-03-29T12:17:32.547Z,15.06
2023-03-29T12:20:15.893Z,15.22
2023-03-29T12:22:54.542Z,15.46
2023-03-29T12:25:37.648Z,15.44
2023-03-29T12:28:25.391Z,15.15
2023-03-29T12:31:15.636Z,15.25
2023-03-29T12:34:11.368Z,15.40
2023-03-29T12:37:25.037Z,15.52
2023-03-29T12:40:01.991Z,15.75
2023-03-29T12:42:34.984Z,15.89
2023-03-29T12:45:23.664Z,16.10
2023-03-29T12:48:00.806Z,16.04
2023-03-29T12:50:39.761Z,15.89
2023-03-29T12:53:24.826Z,15.78
2023-03-29T12:56:14.439Z,15.72
2023-03-29T12:59:09.148Z,15.61
2023-03-29T13:01:54.886Z,15.47
2023-03-29T13:04:40.562Z,15.34
2023-03-29T13:07:30.025Z,15.20
2023-03-29T13:10:08.811Z,15.22
2023-03-29T13:12:49.472Z,15.53
2023-03-29T13:15:35.270Z,15.89
2023-03-29T13:18:22.144Z,16.27
2023-03-29T13:21:11.389Z,16.38
2023-03-29T13:23:56.240Z,16.29
2023-03-29T13:26:47.269Z,16.33
2023-03-29T13:29:52.249Z,16.39
2023-03-29T13:32:49.136Z,16.40
2023-03-29T13:35:37.240Z,16.37
2023-03-29T13:38:22.193Z,16.45
2023-03-29T13:41:30.699Z,16.40
2023-03-29T13:44:06.288Z,16.52
2023-03-29T13:46:42.217Z,16.50
2023-03-29T13:49:32.865Z,16.46
2023-03-29T13:52:18.635Z,16.40
2023-03-29T13:54:59.264Z,16.38
2023-03-29T13:57:48.510Z,16.38
2023-03-29T14:00:28.968Z,16.43
2023-03-29T14:03:09.619Z,16.40
2023-03-29T14:05:51.972Z,16.38
2023-03-29T14:08:28.960Z,16.37
2023-03-29T14:11:04.683Z,16.30
2023-03-29T14:13:44.061Z,16.18
2023-03-29T14:16:16.228Z,16.25
2023-03-29T14:18:53.176Z,16.33
2023-03-29T14:21:25.289Z,16.59
2023-03-29T14:24:03.872Z,17.13
2023-03-29T14:26:40.858Z,17.45
2023-03-29T14:29:21.882Z,17.59
2023-03-29T14:31:58.830Z,17.64
2023-03-29T14:34:31.861Z,17.58
2023-03-29T14:37:05.706Z,17.55
2023-03-29T14:39:43.595Z,17.61
2023-03-29T14:42:24.218Z,17.53
2023-03-29T14:45:08.160Z,17.43
2023-03-29T14:47:46.241Z,17.26
2023-03-29T14:50:29.684Z,17.05
2023-03-29T14:53:06.329Z,17.19
2023-03-29T14:55:48.673Z,17.44
2023-03-29T14:58:25.587Z,17.72
2023-03-29T15:01:01.758Z,17.93
2023-03-29T15:03:52.986Z,17.99
2023-03-29T15:06:33.976Z,18.34
2023-03-29T15:09:07.776Z,18.81
2023-03-29T15:11:41.182Z,19.35
2023-03-29T15:14:23.173Z,19.56
2023-03-29T15:17:05.320Z,19.53
2023-03-29T15:19:39.736Z,19.65
2023-03-29T15:22:22.331Z,19.88
2023-03-29T15:24:54.713Z,20.17
2023-03-29T15:27:33.151Z,20.35
2023-03-29T15:30:24.281Z,20.46
2023-03-29T15:32:57.987Z,20.51
2023-03-29T15:35:34.502Z,20.31
2023-03-29T15:38:07.380Z,20.02
2023-03-29T15:40:43.449Z,19.72
2023-03-29T15:43:16.628Z,19.21
2023-03-29T15:45:53.184Z,18.54
2023-03-29T15:48:32.456Z,18.17
2023-03-29T15:51:09.482Z,18.11
2023-03-29T15:53:43.445Z,17.98
2023-03-29T15:56:22.018Z,17.78
2023-03-29T15:58:57.935Z,17.50
2023-03-29T16:01:45.918Z,17.20
2023-03-29T16:04:30.714Z,16.96
2023-03-29T16:07:16.686Z,16.77
2023-03-29T16:10:01.575Z,16.47
2023-03-29T16:12:40.261Z,16.16
2023-03-29T16:15:24.794Z,15.84
2023-03-29T16:18:00.081Z,15.42
2023-03-29T16:20:41.949Z,15.05
2023-03-29T16:23:16.725Z,14.65
2023-03-29T16:25:53.155Z,14.30
2023-03-29T16:28:29.143Z,13.93
2023-03-29T16:31:08.180Z,13.57
2023-03-29T16:33:42.868Z,13.35
2023-03-29T16:36:18.190Z,13.15
2023-03-29T16:39:03.573Z,12.94
2023-03-29T16:41:40.153Z,12.74
2023-03-29T16:44:25.032Z,12.59
2023-03-29T16:47:09.365Z,12.45
2023-03-29T16:49:49.241Z,12.28
2023-03-29T16:52:30.205Z,12.15
2023-03-29T16:55:07.770Z,12.10
2023-03-29T16:57:53.227Z,12.03
2023-03-29T17:00:39.153Z,11.92
2023-03-29T17:03:11.142Z,11.81
2023-03-29T17:05:55.589Z,11.73
2023-03-29T17:08:38.185Z,11.62
2023-03-29T17:11:14.880Z,11.51
2023-03-29T17:13:47.469Z,11.43
2023-03-29T17:16:24.335Z,11.35
2023-03-29T17:19:06.523Z,11.27
2023-03-29T17:21:38.676Z,11.19
2023-03-29T17:24:15.427Z,11.11
2023-03-29T17:26:53.452Z,11.05
2023-03-29T17:29:28.206Z,11.00
2023-03-29T17:32:06.694Z,10.95
2023-03-29T17:34:42.492Z,10.89
2023-03-29T17:37:17.873Z,10.82
2023-03-29T17:39:54.328Z,10.72
2023-03-29T17:42:31.401Z,10.62
2023-03-29T17:45:12.532Z,10.53
2023-03-29T17:47:47.326Z,10.41
2023-03-29T17:50:26.609Z,10.34
2023-03-29T17:53:00.245Z,10.25
2023-03-29T17:55:39.815Z,10.19
2023-03-29T17:58:17.902Z,10.16
2023-03-29T18:00:52.245Z,10.11
2023-03-29T18:03:30.984Z,10.06
2023-03-29T18:06:14.426Z,9.98
2023-03-29T18:08:47.418Z,9.94
2023-03-29T18:11:29.688Z,9.87
2023-03-29T18:14:07.836Z,9.84
2023-03-29T18:16:50.475Z,9.80
2023-03-29T18:19:28.054Z,9.73
2023-03-29T18:22:02.922Z,9.67
2023-03-29T18:24:39.153Z,9.64
2023-03-29T18:27:17.062Z,9.63
2023-03-29T18:29:55.457Z,9.59
2023-03-29T18:32:27.574Z,9.57
2023-03-29T18:35:08.480Z,9.55
2023-03-29T18:37:41.804Z,9.51
2023-03-29T18:40:26.850Z,9.49
2023-03-29T18:43:08.006Z,9.46
2023-03-29T18:45:48.312Z,9.43
2023-03-29T18:48:32.748Z,9.41
2023-03-29T18:51:08.829Z,9.37
2023-03-29T18:53:53.916Z,9.30
2023-03-29T18:56:39.881Z,9.26
2023-03-29T18:59:19.858Z,9.20
2023-03-29T19:02:01.958Z,9.14
2023-03-29T19:04:43.148Z,9.09
2023-03-29T19:07:23.796Z,9.04
2023-03-29T19:09:55.753Z,8.98
2023-03-29T19:12:34.262Z,8.96
2023-03-29T19:15:23.562Z,8.90
2023-03-29T19:18:16.064Z,8.82
2023-03-29T19:20:58.729Z,8.70
2023-03-29T19:23:33.386Z,8.59
2023-03-29T19:26:11.742Z,8.56
2023-03-29T19:28:50.457Z,8.51
2023-03-29T19:31:28.855Z,8.46
2023-03-29T19:34:03.698Z,8.45
2023-03-29T19:36:40.278Z,8.43
2023-03-29T19:39:21.149Z,8.39
2023-03-29T19:42:02.958Z,8.35
2023-03-29T19:44:50.236Z,8.31
2023-03-29T19:47:26.968Z,8.26
2023-03-29T19:50:07.485Z,8.25
2023-03-29T19:52:51.330Z,8.21
2023-03-29T19:55:29.880Z,8.19
2023-03-29T19:58:10.919Z,8.14
2023-03-29T20:00:49.729Z,8.07
2023-03-29T20:03:28.858Z,8.00
2023-03-29T20:06:09.345Z,7.98
2023-03-29T20:08:51.273Z,7.94
2023-03-29T20:11:27.874Z,7.89
2023-03-29T20:14:06.839Z,7.85
2023-03-29T20:16:38.884Z,7.77
2023-03-29T20:19:19.739Z,7.73
2023-03-29T20:22:01.658Z,7.70
2023-03-29T20:24:41.510Z,7.65
2023-03-29T20:27:16.991Z,7.61
2023-03-29T20:29:50.147Z,7.60
2023-03-29T20:32:25.627Z,7.60
2023-03-29T20:35:01.147Z,7.57
2023-03-29T20:37:37.519Z,7.56
2023-03-29T20:40:20.933Z,7.55
2023-03-29T20:42:55.404Z,7.53
2023-03-29T20:45:30.401Z,7.54
2023-03-29T20:48:14.876Z,7.55
2023-03-29T20:50:54.258Z,7.56
2023-03-29T20:53:34.890Z,7.59
2023-03-29T20:56:13.242Z,7.61
2023-03-29T20:58:46.719Z,7.64
2023-03-29T21:01:22.392Z,7.67
2023-03-29T21:03:58.112Z,7.69
2023-03-29T21:06:32.896Z,7.71
2023-03-29T21:09:06.192Z,7.74
2023-03-29T21:11:47.188Z,7.77
2023-03-29T21:14:30.751Z,7.80
2023-03-29T21:17:05.482Z,7.85
2023-03-29T21:19:39.666Z,7.88
2023-03-29T21:22:14.217Z,7.91
2023-03-29T21:24:46.219Z,7.94
2023-03-29T21:27:19.454Z,7.95
2023-03-29T21:29:53.980Z,7.97
2023-03-29T21:32:28.512Z,7.98
2023-03-29T21:35:04.344Z,8.02
2023-03-29T21:37:37.528Z,8.03
2023-03-29T21:40:18.420Z,8.06
2023-03-29T21:42:51.452Z,8.09
2023-03-29T21:45:27.451Z,8.13
2023-03-29T21:48:00.771Z,8.18
2023-03-29T21:50:38.959Z,8.21
2023-03-29T21:53:14.807Z,8.22
2023-03-29T21:55:46.976Z,8.24
2023-03-29T21:58:21.076Z,8.27
2023-03-29T22:00:59.759Z,8.30
2023-03-29T22:03:36.702Z,8.32
2023-03-29T22:06:18.913Z,8.34
2023-03-29T22:08:53.223Z,8.36
2023-03-29T22:11:26.747Z,8.40
2023-03-29T22:13:58.929Z,8.43
2023-03-29T22:16:38.173Z,8.47
2023-03-29T22:19:14.784Z,8.49
2023-03-29T22:21:52.261Z,8.50
2023-03-29T22:24:28.545Z,8.52
2023-03-29T22:27:02.875Z,8.54
2023-03-29T22:29:35.563Z,8.56
2023-03-29T22:32:12.104Z,8.58
2023-03-29T22:34:47.688Z,8.61
2023-03-29T22:37:25.971Z,8.65
2023-03-29T22:39:57.746Z,8.67
2023-03-29T22:42:29.594Z,8.66
2023-03-29T22:45:07.110Z,8.69
2023-03-29T22:47:40.740Z,8.69
2023-03-29T22:50:17.460Z,8.70
2023-03-29T22:52:49.219Z,8.70
2023-03-29T22:55:26.619Z,8.71
2023-03-29T22:57:58.408Z,8.72
2023-03-29T23:00:31.318Z,8.78
2023-03-29T23:03:07.752Z,8.79
2023-03-29T23:05:39.703Z,8.81
2023-03-29T23:08:14.566Z,8.82
2023-03-29T23:10:52.424Z,8.84
2023-03-29T23:13:30.760Z,8.86
2023-03-29T23:16:09.177Z,8.87
2023-03-29T23:18:43.656Z,8.88
2023-03-29T23:21:18.283Z,8.88
2023-03-29T23:23:50.157Z,8.89
2023-03-29T23:26:26.410Z,8.91
2023-03-29T23:29:06.877Z,8.91
2023-03-29T23:31:39.904Z,8.89
2023-03-29T23:34:15.808Z,8.90
2023-03-29T23:36:49.017Z,8.94
2023-03-29T23:39:20.805Z,8.95
2023-03-29T23:41:55.915Z,8.97
2023-03-29T23:44:29.110Z,8.98
2023-03-29T23:47:02.276Z,9.01
2023-03-29T23:49:39.356Z,9.03
2023-03-29T23:52:12.586Z,9.04
2023-03-29T23:54:46.681Z,9.06
2023-03-29T23:57:21.877Z,9.10
